sensor_id;sensor_type;location;lat;lon;timestamp;pressure;altitude;pressure_sealevel;temperature;humidity
21449;BME280;10885;52.830;13.788;2023-03-13T00:02:23;100141.19;;;5.11;97.73
21449;BME280;10885;52.830;13.788;2023-03-13T00:07:44;100140.31;;;5.10;96.95
21449;BME280;10885;52.830;13.788;2023-03-13T00:13:05;100141.31;;;5.12;97.32
21449;BME280;10885;52.830;13.788;2023-03-13T00:18:26;100139.88;;;5.16;96.94
21449;BME280;10885;52.830;13.788;2023-03-13T00:23:47;100133.44;;;5.21;96.63
21449;BME280;10885;52.830;13.788;2023-03-13T00:29:08;100130.03;;;5.21;96.91
21449;BME280;10885;52.830;13.788;2023-03-13T00:34:29;100119.31;;;5.25;96.28
21449;BME280;10885;52.830;13.788;2023-03-13T00:39:51;100119.44;;;5.26;96.03
21449;BME280;10885;52.830;13.788;2023-03-13T00:45:12;100112.91;;;5.30;96.00
21449;BME280;10885;52.830;13.788;2023-03-13T00:50:33;100108.59;;;5.29;96.41
21449;BME280;10885;52.830;13.788;2023-03-13T00:55:55;100109.56;;;5.31;95.97
21449;BME280;10885;52.830;13.788;2023-03-13T01:01:18;100096.88;;;5.31;96.61
21449;BME280;10885;52.830;13.788;2023-03-13T01:06:39;100097.78;;;5.31;96.30
21449;BME280;10885;52.830;13.788;2023-03-13T01:12:02;100092.13;;;5.35;96.90
21449;BME280;10885;52.830;13.788;2023-03-13T01:17:23;100088.91;;;5.38;96.50
21449;BME280;10885;52.830;13.788;2023-03-13T01:22:44;100094.00;;;5.38;96.43
21449;BME280;10885;52.830;13.788;2023-03-13T01:28:05;100076.31;;;5.40;97.08
21449;BME280;10885;52.830;13.788;2023-03-13T01:33:26;100075.53;;;5.41;97.27
21449;BME280;10885;52.830;13.788;2023-03-13T01:38:48;100081.72;;;5.44;97.16
21449;BME280;10885;52.830;13.788;2023-03-13T01:44:17;100063.16;;;5.45;96.27
21449;BME280;10885;52.830;13.788;2023-03-13T01:49:40;100065.78;;;5.47;96.81
21449;BME280;10885;52.830;13.788;2023-03-13T01:55:32;100055.53;;;5.45;96.68
21449;BME280;10885;52.830;13.788;2023-03-13T02:00:54;100047.22;;;5.48;97.24
21449;BME280;10885;52.830;13.788;2023-03-13T02:06:15;100040.22;;;5.57;97.47
21449;BME280;10885;52.830;13.788;2023-03-13T02:11:38;100039.75;;;5.63;97.37
21449;BME280;10885;52.830;13.788;2023-03-13T02:17:03;100040.16;;;5.69;97.24
21449;BME280;10885;52.830;13.788;2023-03-13T02:27:46;100017.22;;;5.81;96.41
21449;BME280;10885;52.830;13.788;2023-03-13T02:33:07;100010.81;;;5.86;96.01
21449;BME280;10885;52.830;13.788;2023-03-13T02:38:30;99993.50;;;5.93;95.39
21449;BME280;10885;52.830;13.788;2023-03-13T02:43:52;100000.47;;;5.96;94.66
21449;BME280;10885;52.830;13.788;2023-03-13T02:54:40;99988.75;;;5.98;93.32
21449;BME280;10885;52.830;13.788;2023-03-13T03:00:05;99988.75;;;5.98;93.09
21449;BME280;10885;52.830;13.788;2023-03-13T03:05:27;99973.28;;;5.95;93.47
21449;BME280;10885;52.830;13.788;2023-03-13T03:10:49;99962.19;;;5.94;93.71
21449;BME280;10885;52.830;13.788;2023-03-13T03:16:11;99960.22;;;5.90;93.54
21449;BME280;10885;52.830;13.788;2023-03-13T03:21:35;99954.84;;;5.86;93.80
21449;BME280;10885;52.830;13.788;2023-03-13T03:26:55;99958.06;;;5.83;93.69
21449;BME280;10885;52.830;13.788;2023-03-13T03:32:21;99950.75;;;5.88;93.14
21449;BME280;10885;52.830;13.788;2023-03-13T03:37:42;99947.31;;;5.87;93.39
21449;BME280;10885;52.830;13.788;2023-03-13T03:43:03;99932.81;;;5.86;93.67
21449;BME280;10885;52.830;13.788;2023-03-13T03:48:24;99938.13;;;5.89;93.30
21449;BME280;10885;52.830;13.788;2023-03-13T03:53:45;99922.28;;;5.93;93.71
21449;BME280;10885;52.830;13.788;2023-03-13T03:59:06;99919.19;;;5.97;93.33
21449;BME280;10885;52.830;13.788;2023-03-13T04:04:40;99915.19;;;6.01;93.52
21449;BME280;10885;52.830;13.788;2023-03-13T04:10:13;99913.50;;;6.02;93.35
21449;BME280;10885;52.830;13.788;2023-03-13T04:15:38;99902.16;;;6.10;93.58
21449;BME280;10885;52.830;13.788;2023-03-13T04:21:01;99890.25;;;6.09;93.90
21449;BME280;10885;52.830;13.788;2023-03-13T04:26:26;99883.06;;;6.16;94.39
21449;BME280;10885;52.830;13.788;2023-03-13T04:31:48;99864.66;;;6.21;94.66
21449;BME280;10885;52.830;13.788;2023-03-13T04:37:28;99861.63;;;6.26;94.58
21449;BME280;10885;52.830;13.788;2023-03-13T04:43:04;99849.97;;;6.30;94.88
21449;BME280;10885;52.830;13.788;2023-03-13T04:48:43;99836.56;;;6.32;94.60
21449;BME280;10885;52.830;13.788;2023-03-13T04:54:16;99832.91;;;6.42;94.31
21449;BME280;10885;52.830;13.788;2023-03-13T04:59:57;99816.97;;;6.45;94.56
21449;BME280;10885;52.830;13.788;2023-03-13T05:05:37;99805.28;;;6.48;94.09
21449;BME280;10885;52.830;13.788;2023-03-13T05:11:23;99801.25;;;6.52;94.02
21449;BME280;10885;52.830;13.788;2023-03-13T05:17:10;99779.22;;;6.52;94.53
21449;BME280;10885;52.830;13.788;2023-03-13T05:22:49;99774.13;;;6.52;94.60
21449;BME280;10885;52.830;13.788;2023-03-13T05:28:28;99764.66;;;6.50;94.85
21449;BME280;10885;52.830;13.788;2023-03-13T05:34:05;99754.00;;;6.42;95.25
21449;BME280;10885;52.830;13.788;2023-03-13T05:39:34;99741.97;;;6.40;95.74
21449;BME280;10885;52.830;13.788;2023-03-13T05:45:18;99740.13;;;6.37;95.69
21449;BME280;10885;52.830;13.788;2023-03-13T05:51:06;99722.47;;;6.40;95.90
21449;BME280;10885;52.830;13.788;2023-03-13T05:56:27;99713.38;;;6.44;95.65
21449;BME280;10885;52.830;13.788;2023-03-13T06:02:10;99703.22;;;6.59;95.27
21449;BME280;10885;52.830;13.788;2023-03-13T06:07:36;99707.94;;;6.52;94.80
21449;BME280;10885;52.830;13.788;2023-03-13T18:28:40;98938.66;;;13.63;72.92
21449;BME280;10885;52.830;13.788;2023-03-13T18:34:03;98920.56;;;13.60;73.07
21449;BME280;10885;52.830;13.788;2023-03-13T18:39:24;98940.13;;;13.50;73.00
21449;BME280;10885;52.830;13.788;2023-03-13T18:44:44;98931.50;;;13.48;73.09
21449;BME280;10885;52.830;13.788;2023-03-13T18:50:26;98927.22;;;13.48;73.24
21449;BME280;10885;52.830;13.788;2023-03-13T18:55:48;98913.28;;;13.39;73.74
21449;BME280;10885;52.830;13.788;2023-03-13T19:01:10;98912.50;;;13.41;73.82
21449;BME280;10885;52.830;13.788;2023-03-13T19:06:33;98897.84;;;13.39;73.74
21449;BME280;10885;52.830;13.788;2023-03-13T19:11:54;98900.44;;;13.37;73.74
21449;BME280;10885;52.830;13.788;2023-03-13T19:17:24;98912.44;;;13.38;74.00
21449;BME280;10885;52.830;13.788;2023-03-13T19:22:48;98905.72;;;13.46;73.94
21449;BME280;10885;52.830;13.788;2023-03-13T19:28:09;98897.06;;;13.41;73.82
21449;BME280;10885;52.830;13.788;2023-03-13T19:33:31;98898.78;;;13.42;73.84
21449;BME280;10885;52.830;13.788;2023-03-13T19:38:52;98889.47;;;13.47;73.34
21449;BME280;10885;52.830;13.788;2023-03-13T19:44:13;98890.28;;;13.46;73.38
21449;BME280;10885;52.830;13.788;2023-03-13T19:49:34;98898.81;;;13.44;73.49
21449;BME280;10885;52.830;13.788;2023-03-13T19:54:55;98892.81;;;13.43;73.21
21449;BME280;10885;52.830;13.788;2023-03-13T20:00:23;98885.91;;;13.42;73.31
21449;BME280;10885;52.830;13.788;2023-03-13T20:05:44;98891.03;;;13.41;73.76
21449;BME280;10885;52.830;13.788;2023-03-13T20:11:05;98906.47;;;13.39;73.45
21449;BME280;10885;52.830;13.788;2023-03-13T20:16:28;98913.25;;;13.36;73.99
21449;BME280;10885;52.830;13.788;2023-03-13T20:21:52;98900.31;;;13.31;73.80
21449;BME280;10885;52.830;13.788;2023-03-13T20:27:13;98898.41;;;13.24;74.04
21449;BME280;10885;52.830;13.788;2023-03-13T20:32:34;98860.56;;;13.18;74.10
21449;BME280;10885;52.830;13.788;2023-03-13T20:37:57;98859.63;;;13.13;74.74
21449;BME280;10885;52.830;13.788;2023-03-13T20:43:21;98860.34;;;13.06;74.90
21449;BME280;10885;52.830;13.788;2023-03-13T20:48:42;98865.41;;;13.03;75.06
21449;BME280;10885;52.830;13.788;2023-03-13T20:54:03;98843.03;;;12.97;75.32
21449;BME280;10885;52.830;13.788;2023-03-13T20:59:24;98848.06;;;12.92;75.39
21449;BME280;10885;52.830;13.788;2023-03-13T21:04:45;98846.25;;;12.88;75.77
21449;BME280;10885;52.830;13.788;2023-03-13T21:10:08;98847.97;;;12.88;75.53
21449;BME280;10885;52.830;13.788;2023-03-13T21:15:29;98859.94;;;12.86;75.96
21449;BME280;10885;52.830;13.788;2023-03-13T21:20:50;98836.72;;;12.83;76.17
21449;BME280;10885;52.830;13.788;2023-03-13T21:26:11;98838.31;;;12.76;76.56
21449;BME280;10885;52.830;13.788;2023-03-13T21:31:32;98831.31;;;12.70;76.51
21449;BME280;10885;52.830;13.788;2023-03-13T21:36:53;98824.34;;;12.65;76.82
21449;BME280;10885;52.830;13.788;2023-03-13T21:42:14;98835.56;;;12.68;76.29
21449;BME280;10885;52.830;13.788;2023-03-13T21:47:34;98862.94;;;12.66;76.14
21449;BME280;10885;52.830;13.788;2023-03-13T21:52:58;98854.41;;;12.67;76.03
21449;BME280;10885;52.830;13.788;2023-03-13T21:58:19;98851.81;;;12.66;76.31
21449;BME280;10885;52.830;13.788;2023-03-13T22:03:40;98844.13;;;12.69;76.11
21449;BME280;10885;52.830;13.788;2023-03-13T22:09:02;98838.19;;;12.70;75.21
21449;BME280;10885;52.830;13.788;2023-03-13T22:14:23;98826.97;;;12.66;75.67
21449;BME280;10885;52.830;13.788;2023-03-13T22:19:45;98828.66;;;12.66;75.46
21449;BME280;10885;52.830;13.788;2023-03-13T22:25:07;98841.56;;;12.67;75.09
21449;BME280;10885;52.830;13.788;2023-03-13T22:30:27;98829.53;;;12.66;74.76
21449;BME280;10885;52.830;13.788;2023-03-13T22:35:50;98822.63;;;12.64;74.39
21449;BME280;10885;52.830;13.788;2023-03-13T22:41:15;98815.78;;;12.64;74.38
21449;BME280;10885;52.830;13.788;2023-03-13T22:46:37;98827.78;;;12.64;73.87
21449;BME280;10885;52.830;13.788;2023-03-13T22:51:58;98838.06;;;12.64;73.92
21449;BME280;10885;52.830;13.788;2023-03-13T22:57:19;98819.22;;;12.65;73.71
21449;BME280;10885;52.830;13.788;2023-03-13T23:02:39;98808.06;;;12.64;73.15
21449;BME280;10885;52.830;13.788;2023-03-13T23:08:00;98799.47;;;12.62;73.12
21449;BME280;10885;52.830;13.788;2023-03-13T23:13:21;98811.31;;;12.56;73.58
21449;BME280;10885;52.830;13.788;2023-03-13T23:18:43;98812.16;;;12.54;73.41
21449;BME280;10885;52.830;13.788;2023-03-13T23:24:04;98817.06;;;12.45;73.78
21449;BME280;10885;52.830;13.788;2023-03-13T23:29:25;98811.81;;;12.39;73.99
21449;BME280;10885;52.830;13.788;2023-03-13T23:34:46;98794.53;;;12.32;73.98
21449;BME280;10885;52.830;13.788;2023-03-13T23:40:08;98780.00;;;12.32;74.08
21449;BME280;10885;52.830;13.788;2023-03-13T23:45:34;98788.44;;;12.27;74.23
21449;BME280;10885;52.830;13.788;2023-03-13T23:50:56;98790.06;;;12.23;74.17
21449;BME280;10885;52.830;13.788;2023-03-13T23:56:18;98775.44;;;12.21;74.60
